Time;durP1;ratioP1;P1;durP2;ratioP2;P2;SDS_P1;SDS_P2;PMS_P1;PMS_P2;Temp;Humidity;BMP_temperature;BMP_pressure;BME280_temperature;BME280_humidity;BME280_pressure;Samples;Min_cycle;Max_cycle;Signal;HPM_P1;HPM_P2
2023/04/06 00:00:58;;;;;;;11.30;10.18;;;3.00;93.50;;;;;;6088202;23;20234;-71
2023/04/06 00:03:26;;;;;;;14.40;10.73;;;3.00;93.70;;;;;;6088530;23;20225;-72
2023/04/06 00:05:53;;;;;;;11.80;10.60;;;3.00;93.90;;;;;;6077906;23;20199;-72
2023/04/06 00:08:23;;;;;;;11.25;10.07;;;3.00;94.10;;;;;;6087636;23;20194;-72
2023/04/06 00:10:50;;;;;;;10.85;9.85;;;3.00;94.50;;;;;;6085388;23;20244;-72
2023/04/06 00:13:17;;;;;;;11.57;10.32;;;2.90;94.90;;;;;;6083898;23;20216;-72
2023/04/06 00:15:45;;;;;;;11.80;10.27;;;2.90;95.10;;;;;;6088515;23;20199;-72
2023/04/06 00:18:13;;;;;;;11.93;10.73;;;2.80;95.60;;;;;;6073615;23;20217;-72
2023/04/06 00:20:40;;;;;;;11.73;10.57;;;2.70;96.20;;;;;;6089654;23;20256;-72
2023/04/06 00:23:08;;;;;;;14.32;11.00;;;2.60;96.60;;;;;;6088110;23;20285;-72
2023/04/06 00:25:35;;;;;;;12.18;10.55;;;2.60;97.10;;;;;;6089131;23;20192;-72
2023/04/06 00:28:03;;;;;;;11.10;10.00;;;2.50;97.70;;;;;;6090187;23;20260;-71
2023/04/06 00:30:30;;;;;;;10.15;9.15;;;2.30;98.50;;;;;;6086298;23;20226;-72
2023/04/06 00:32:57;;;;;;;13.05;11.20;;;2.20;99.00;;;;;;6089733;23;20264;-72
2023/04/06 00:35:26;;;;;;;11.95;10.85;;;2.20;99.70;;;;;;6089174;23;20201;-72
2023/04/06 00:37:53;;;;;;;10.77;9.75;;;2.10;99.90;;;;;;6090680;23;20222;-72
2023/04/06 00:40:20;;;;;;;11.13;10.02;;;2.10;99.90;;;;;;6089683;23;20284;-72
2023/04/06 00:42:47;;;;;;;12.07;10.10;;;2.10;99.90;;;;;;6089517;23;20780;-72
2023/04/06 00:45:15;;;;;;;11.13;10.07;;;2.10;99.90;;;;;;6089911;23;20226;-72
2023/04/06 00:47:42;;;;;;;12.45;10.43;;;2.10;99.90;;;;;;6083137;23;20218;-72
2023/04/06 00:50:10;;;;;;;12.77;9.70;;;2.10;99.90;;;;;;6093824;23;20636;-72
2023/04/06 00:52:38;;;;;;;11.10;9.90;;;2.10;99.90;;;;;;6090016;23;20270;-72
2023/04/06 00:55:06;;;;;;;9.98;9.07;;;2.10;99.90;;;;;;6087206;23;20199;-72
2023/04/06 00:57:33;;;;;;;10.43;9.45;;;2.10;99.90;;;;;;6089436;23;20225;-72
2023/04/06 01:00:01;;;;;;;10.73;9.65;;;2.10;99.90;;;;;;6087300;23;20190;-72
2023/04/06 01:02:29;;;;;;;11.30;10.23;;;2.40;99.90;;;;;;6074396;23;20282;-72
2023/04/06 01:04:57;;;;;;;12.25;10.68;;;2.10;99.90;;;;;;6078586;23;20199;-72
2023/04/06 01:07:24;;;;;;;11.80;10.70;;;2.00;99.90;;;;;;6089946;23;20647;-72
2023/04/06 01:09:54;;;;;;;11.13;10.13;;;2.00;99.90;;;;;;6086867;23;20202;-72
2023/04/06 01:12:21;;;;;;;10.70;9.70;;;2.00;99.90;;;;;;6090658;23;20733;-72
2023/04/06 01:14:49;;;;;;;12.13;10.52;;;2.30;99.90;;;;;;6088066;23;20222;-72
2023/04/06 01:17:16;;;;;;;11.27;10.18;;;2.20;99.90;;;;;;6088529;23;20273;-72
2023/04/06 01:19:45;;;;;;;11.73;10.63;;;1.80;99.90;;;;;;6084012;23;20194;-72
2023/04/06 01:22:16;;;;;;;11.85;10.75;;;1.80;99.90;;;;;;6082329;23;20680;-72
2023/04/06 01:24:44;;;;;;;13.35;10.40;;;1.80;99.90;;;;;;6084791;23;20244;-72
2023/04/06 01:27:11;;;;;;;11.75;10.63;;;1.60;99.90;;;;;;6086383;23;20280;-73
2023/04/06 01:29:41;;;;;;;11.35;10.15;;;1.50;99.90;;;;;;6083780;23;20557;-72
2023/04/06 01:32:08;;;;;;;10.32;9.35;;;1.40;99.90;;;;;;6089392;23;20208;-72
2023/04/06 01:34:35;;;;;;;12.05;10.23;;;1.40;99.90;;;;;;6086924;23;20200;-72
2023/04/06 01:37:02;;;;;;;11.20;10.05;;;1.30;99.90;;;;;;6081293;23;20641;-72
2023/04/06 01:39:31;;;;;;;12.15;10.85;;;1.30;99.90;;;;;;6090444;23;20225;-72
2023/04/06 01:41:58;;;;;;;10.50;9.50;;;1.40;99.90;;;;;;6089013;23;20248;-72
2023/04/06 01:44:26;;;;;;;11.38;9.77;;;1.30;99.90;;;;;;6087764;23;20654;-71
2023/04/06 01:46:53;;;;;;;10.75;9.60;;;1.30;99.90;;;;;;6086938;23;20196;-72
2023/04/06 01:49:20;;;;;;;10.45;9.40;;;1.20;99.90;;;;;;6087833;23;20208;-72
2023/04/06 01:51:47;;;;;;;10.40;9.48;;;1.10;99.90;;;;;;6085558;23;20680;-72
2023/04/06 01:54:14;;;;;;;11.93;9.60;;;1.10;99.90;;;;;;6071336;23;20238;-72
2023/04/06 01:56:43;;;;;;;10.65;9.65;;;1.10;99.90;;;;;;6085546;23;20208;-73
2023/04/06 01:59:10;;;;;;;11.00;9.88;;;1.10;99.90;;;;;;6090530;23;20216;-72
2023/04/06 02:01:37;;;;;;;10.57;9.57;;;1.30;99.90;;;;;;6088059;23;20235;-73
2023/04/06 02:04:04;;;;;;;10.63;9.32;;;1.00;99.90;;;;;;6071187;23;20193;-72
2023/04/06 02:06:32;;;;;;;12.02;10.88;;;1.00;99.90;;;;;;6084771;23;20224;-71
2023/04/06 02:08:59;;;;;;;11.10;10.10;;;1.00;99.90;;;;;;6088339;23;20268;-71
2023/04/06 02:11:26;;;;;;;9.90;9.00;;;1.00;99.90;;;;;;6088313;23;20696;-71
2023/04/06 02:13:56;;;;;;;10.27;8.95;;;1.00;99.90;;;;;;6088177;23;21781;-71
2023/04/06 02:16:23;;;;;;;11.00;10.00;;;1.00;99.90;;;;;;6078744;23;20546;-71
2023/04/06 02:18:51;;;;;;;10.05;9.15;;;1.00;99.90;;;;;;6087440;23;20221;-71
2023/04/06 02:21:20;;;;;;;11.65;10.68;;;0.90;99.90;;;;;;6087238;23;20417;-71
2023/04/06 02:23:47;;;;;;;10.43;9.32;;;0.90;99.90;;;;;;6088342;23;20572;-71
2023/04/06 02:26:14;;;;;;;10.60;9.50;;;0.90;99.90;;;;;;6087179;23;20196;-71
2023/04/06 02:28:41;;;;;;;10.05;9.02;;;1.20;99.90;;;;;;6086337;23;20242;-71
2023/04/06 02:31:10;;;;;;;10.38;9.48;;;0.80;99.90;;;;;;6088701;23;20231;-71
2023/04/06 02:33:38;;;;;;;12.82;9.25;;;0.80;99.90;;;;;;6087643;23;20606;-70
2023/04/06 02:36:05;;;;;;;11.80;9.25;;;0.80;99.90;;;;;;6086458;23;20271;-71
2023/04/06 02:38:32;;;;;;;10.00;9.10;;;0.80;99.90;;;;;;6088311;23;20211;-70
2023/04/06 02:40:59;;;;;;;9.68;8.82;;;0.80;99.90;;;;;;6089061;23;20196;-70
2023/04/06 02:43:27;;;;;;;11.88;10.68;;;0.80;99.90;;;;;;6080979;23;20675;-71
2023/04/06 02:45:54;;;;;;;10.90;9.80;;;0.80;99.90;;;;;;6078403;23;20189;-70
2023/04/06 02:48:22;;;;;;;9.98;9.07;;;0.80;99.90;;;;;;6088401;23;20700;-71
2023/04/06 02:50:50;;;;;;;10.82;9.80;;;0.70;99.90;;;;;;6089900;23;20197;-71
2023/04/06 02:53:17;;;;;;;11.00;9.90;;;0.70;99.90;;;;;;6085710;23;20282;-71
2023/04/06 02:55:44;;;;;;;10.75;9.63;;;0.60;99.90;;;;;;6085482;23;20695;-71
2023/04/06 02:58:11;;;;;;;10.00;9.10;;;1.00;99.90;;;;;;6087682;23;20749;-71
2023/04/06 03:00:38;;;;;;;10.93;9.70;;;0.50;99.90;;;;;;6088829;23;20206;-72
2023/04/06 03:03:07;;;;;;;10.57;9.57;;;0.50;99.90;;;;;;6079941;23;20224;-72
2023/04/06 03:05:35;;;;;;;11.35;10.25;;;0.50;99.90;;;;;;6080574;23;20195;-71
2023/04/06 03:08:03;;;;;;;11.43;10.23;;;0.60;99.90;;;;;;6082218;23;20194;-71
2023/04/06 03:10:30;;;;;;;11.50;10.30;;;0.60;99.90;;;;;;6088037;23;20192;-71
2023/04/06 03:12:57;;;;;;;11.52;10.48;;;0.60;99.90;;;;;;6089333;23;20746;-71
2023/04/06 03:15:24;;;;;;;11.40;10.43;;;0.60;99.90;;;;;;6087503;23;20200;-71
2023/04/06 03:17:51;;;;;;;11.25;10.18;;;0.60;99.90;;;;;;6092906;23;20199;-71
2023/04/06 03:20:19;;;;;;;11.85;10.65;;;0.60;99.90;;;;;;6075065;23;20528;-71
2023/04/06 03:22:47;;;;;;;11.90;10.80;;;0.90;99.90;;;;;;6087785;23;20250;-71
2023/04/06 03:25:14;;;;;;;11.35;10.23;;;0.50;99.90;;;;;;6086527;23;20203;-71
2023/04/06 03:27:42;;;;;;;14.07;11.07;;;0.50;99.90;;;;;;6084327;23;20275;-71
2023/04/06 03:30:10;;;;;;;11.85;10.65;;;0.50;99.90;;;;;;6089315;23;20214;-72
2023/04/06 03:32:37;;;;;;;12.07;10.88;;;0.50;99.90;;;;;;6079168;23;20258;-71
2023/04/06 03:35:05;;;;;;;14.30;10.68;;;0.40;99.90;;;;;;6086815;23;20267;-71
2023/04/06 03:37:32;;;;;;;12.20;10.98;;;0.40;99.90;;;;;;6087822;23;20195;-71
2023/04/06 03:40:01;;;;;;;12.48;11.18;;;0.40;99.90;;;;;;6085369;23;20273;-71
2023/04/06 03:42:28;;;;;;;11.93;10.55;;;0.40;99.90;;;;;;6089741;23;20219;-70
2023/04/06 03:44:55;;;;;;;12.75;11.45;;;0.40;99.90;;;;;;6084306;23;20652;-71
2023/04/06 03:47:22;;;;;;;13.13;11.82;;;0.80;99.90;;;;;;6086498;23;20188;-71
2023/04/06 03:49:50;;;;;;;14.30;12.80;;;0.80;99.90;;;;;;6087293;23;20192;-71
2023/04/06 03:52:17;;;;;;;13.98;12.57;;;0.50;99.90;;;;;;6087509;23;20208;-71
2023/04/06 03:54:44;;;;;;;14.60;12.80;;;0.60;99.90;;;;;;6087851;23;20215;-71
2023/04/06 03:57:13;;;;;;;13.52;12.32;;;0.60;99.90;;;;;;6073490;23;20200;-73
2023/04/06 03:59:40;;;;;;;13.13;11.75;;;0.50;99.90;;;;;;6082850;23;20212;-72
2023/04/06 04:02:07;;;;;;;15.13;13.55;;;0.50;99.90;;;;;;6081656;23;20295;-72
2023/04/06 04:04:34;;;;;;;15.02;13.35;;;0.50;99.90;;;;;;6089246;23;20200;-72
2023/04/06 04:07:02;;;;;;;14.32;12.55;;;0.50;99.90;;;;;;6084777;23;20197;-72
2023/04/06 04:09:29;;;;;;;14.05;12.65;;;0.50;99.90;;;;;;6089958;23;20184;-72
2023/04/06 04:11:56;;;;;;;13.38;11.80;;;0.60;99.90;;;;;;6088429;23;20330;-72
2023/04/06 04:14:25;;;;;;;14.98;13.32;;;0.60;99.90;;;;;;6088768;23;20272;-71
2023/04/06 04:16:52;;;;;;;13.90;12.25;;;0.60;99.90;;;;;;6085647;23;20249;-71
2023/04/06 04:19:19;;;;;;;14.63;12.60;;;0.50;99.90;;;;;;6089682;23;20274;-71
2023/04/06 04:21:47;;;;;;;16.42;14.60;;;0.50;99.90;;;;;;6086729;23;20213;-71
2023/04/06 04:24:14;;;;;;;14.73;12.63;;;0.40;99.90;;;;;;6089197;23;20211;-71
2023/04/06 04:26:42;;;;;;;15.73;14.15;;;0.40;99.90;;;;;;6086863;23;20202;-71
2023/04/06 04:29:09;;;;;;;16.00;14.30;;;0.30;99.90;;;;;;6087714;23;20206;-71
2023/04/06 04:31:37;;;;;;;14.18;12.70;;;0.30;99.90;;;;;;6077888;23;20679;-70
2023/04/06 04:34:06;;;;;;;15.38;13.90;;;0.30;99.90;;;;;;6086490;23;20226;-71
2023/04/06 04:36:33;;;;;;;15.55;13.93;;;0.30;99.90;;;;;;6085295;23;20262;-70
2023/04/06 04:39:01;;;;;;;15.27;13.65;;;0.20;99.90;;;;;;6089242;23;20209;-71
2023/04/06 04:41:28;;;;;;;15.60;14.00;;;0.20;99.90;;;;;;6084281;23;20259;-71
2023/04/06 04:43:55;;;;;;;14.15;12.65;;;0.20;99.90;;;;;;6086928;23;20269;-71
2023/04/06 04:46:22;;;;;;;14.80;13.18;;;0.20;99.90;;;;;;6062944;23;20204;-71
2023/04/06 04:48:51;;;;;;;15.05;13.23;;;0.20;99.90;;;;;;6071630;23;20275;-71
2023/04/06 04:51:19;;;;;;;14.48;12.95;;;-0.10;99.90;;;;;;6078968;23;20208;-71
2023/04/06 04:53:46;;;;;;;15.43;14.00;;;0.10;99.90;;;;;;6093099;23;20216;-71
2023/04/06 04:56:13;;;;;;;17.85;15.63;;;0.10;99.90;;;;;;6090058;23;20666;-71
2023/04/06 04:58:41;;;;;;;14.20;12.82;;;0.10;99.90;;;;;;6087471;23;20203;-71
2023/04/06 05:01:09;;;;;;;14.85;13.32;;;0.10;99.90;;;;;;6088816;23;20208;-70
2023/04/06 05:03:39;;;;;;;16.15;14.55;;;0.00;99.90;;;;;;6090080;23;20725;-70
2023/04/06 05:06:08;;;;;;;15.90;14.30;;;0.10;99.90;;;;;;6080291;23;20230;-70
2023/04/06 05:08:35;;;;;;;16.23;14.65;;;0.00;99.90;;;;;;6086663;23;20663;-70
2023/04/06 05:11:02;;;;;;;15.93;14.32;;;0.10;99.90;;;;;;6088073;23;20830;-70
2023/04/06 05:13:31;;;;;;;17.33;14.32;;;0.10;99.90;;;;;;6083547;23;20219;-70
2023/04/06 05:15:58;;;;;;;18.13;14.68;;;0.10;99.90;;;;;;6090857;23;20216;-70
2023/04/06 05:18:26;;;;;;;16.25;14.52;;;0.20;99.90;;;;;;6067666;23;20248;-70
2023/04/06 05:20:53;;;;;;;15.85;14.15;;;0.20;99.90;;;;;;6079682;23;20691;-71
2023/04/06 05:23:22;;;;;;;15.68;14.18;;;0.20;99.90;;;;;;6088993;23;20698;-71
2023/04/06 05:25:49;;;;;;;16.15;14.38;;;0.20;99.90;;;;;;6073180;23;20299;-70
2023/04/06 05:28:17;;;;;;;15.77;13.93;;;0.30;99.90;;;;;;6087573;23;20645;-71
2023/04/06 05:30:45;;;;;;;17.92;13.95;;;0.30;99.90;;;;;;6085426;23;20196;-74
2023/04/06 05:33:12;;;;;;;17.90;14.52;;;0.30;99.90;;;;;;6089340;23;20196;-71
2023/04/06 05:35:40;;;;;;;15.13;13.57;;;0.30;99.90;;;;;;6085479;23;20695;-71
2023/04/06 05:38:09;;;;;;;16.70;15.00;;;0.40;99.90;;;;;;6083057;23;20226;-73
2023/04/06 05:40:40;;;;;;;17.10;13.70;;;0.40;99.90;;;;;;6076432;23;20256;-71
2023/04/06 05:43:08;;;;;;;17.17;14.98;;;0.50;99.90;;;;;;6089886;23;20188;-71
2023/04/06 05:45:35;;;;;;;18.35;13.50;;;0.50;99.90;;;;;;6089342;23;20212;-71
2023/04/06 05:48:02;;;;;;;14.95;13.45;;;0.60;99.90;;;;;;6073950;23;20263;-72
2023/04/06 05:50:30;;;;;;;14.30;12.90;;;0.60;99.90;;;;;;6089897;23;20193;-71
2023/04/06 05:52:57;;;;;;;15.20;13.70;;;0.60;99.90;;;;;;6089930;23;20199;-71
2023/04/06 05:55:24;;;;;;;15.23;13.63;;;0.60;99.90;;;;;;6086333;23;20656;-72
2023/04/06 05:57:52;;;;;;;14.75;13.30;;;0.60;99.90;;;;;;6089786;23;20197;-71
2023/04/06 06:00:20;;;;;;;14.52;13.00;;;0.60;99.90;;;;;;6071517;23;20220;-71
2023/04/06 06:02:47;;;;;;;14.52;12.98;;;0.70;99.90;;;;;;6090752;23;20279;-71
2023/04/06 06:05:14;;;;;;;14.82;13.43;;;0.70;99.90;;;;;;6090205;23;20194;-71
2023/04/06 06:07:41;;;;;;;14.30;12.88;;;0.60;99.90;;;;;;6078104;23;20197;-71
2023/04/06 06:10:10;;;;;;;14.10;12.70;;;0.70;99.90;;;;;;6079557;23;20271;-72
2023/04/06 06:12:37;;;;;;;13.25;11.85;;;0.80;99.90;;;;;;6089542;23;20214;-74
2023/04/06 06:15:07;;;;;;;13.27;11.90;;;0.80;99.90;;;;;;6072728;23;20650;-72
2023/04/06 06:17:34;;;;;;;12.57;11.38;;;0.80;99.90;;;;;;6076696;23;20186;-70
2023/04/06 06:20:02;;;;;;;12.90;11.60;;;0.90;99.90;;;;;;6066246;23;20204;-69
2023/04/06 06:22:29;;;;;;;13.57;12.18;;;0.90;99.90;;;;;;6070058;23;20203;-70
2023/04/06 06:24:57;;;;;;;13.57;12.25;;;1.10;99.90;;;;;;6066189;23;20197;-70
2023/04/06 06:27:24;;;;;;;13.18;11.70;;;1.10;99.90;;;;;;6068843;23;20224;-81
2023/04/06 06:29:52;;;;;;;13.90;12.60;;;1.10;99.90;;;;;;6079446;23;20196;-85
2023/04/06 06:32:20;;;;;;;13.88;12.48;;;1.30;99.90;;;;;;6086585;23;20219;-81
2023/04/06 06:34:48;;;;;;;12.80;11.70;;;1.30;99.90;;;;;;6079438;23;20189;-71
2023/04/06 06:37:15;;;;;;;12.45;11.23;;;1.40;99.90;;;;;;6086179;23;20300;-71
2023/04/06 06:39:42;;;;;;;12.43;11.13;;;1.80;99.90;;;;;;6084514;23;20225;-71
2023/04/06 06:42:09;;;;;;;12.95;11.70;;;1.70;99.90;;;;;;6088819;23;20213;-71
2023/04/06 06:44:36;;;;;;;13.20;11.88;;;1.80;99.90;;;;;;6089113;23;20232;-71
2023/04/06 06:47:04;;;;;;;12.77;11.50;;;2.00;99.90;;;;;;6088493;23;20255;-71
2023/04/06 06:49:32;;;;;;;12.20;11.10;;;2.30;99.90;;;;;;6089545;23;20239;-72
2023/04/06 06:51:59;;;;;;;11.93;10.93;;;2.60;99.90;;;;;;6087185;23;20214;-71
2023/04/06 06:54:27;;;;;;;13.68;11.43;;;2.90;99.90;;;;;;6088796;23;20180;-72
2023/04/06 06:56:54;;;;;;;12.35;11.15;;;3.20;99.90;;;;;;6082664;23;20242;-71
2023/04/06 06:59:21;;;;;;;12.27;11.18;;;3.50;99.90;;;;;;6086063;23;20262;-71
2023/04/06 07:01:50;;;;;;;13.50;12.15;;;3.80;99.90;;;;;;6079204;23;20219;-71
2023/04/06 07:04:17;;;;;;;12.35;10.68;;;4.20;99.90;;;;;;6064356;23;20185;-71
2023/04/06 07:06:46;;;;;;;13.13;11.88;;;4.40;99.90;;;;;;6080186;23;20191;-72
2023/04/06 07:09:13;;;;;;;12.30;11.18;;;4.40;99.90;;;;;;6087166;23;20184;-72
2023/04/06 07:11:41;;;;;;;12.32;11.10;;;4.40;99.90;;;;;;6087761;23;20243;-72
2023/04/06 07:14:08;;;;;;;12.70;11.50;;;4.50;99.90;;;;;;6082892;23;20358;-72
2023/04/06 07:16:36;;;;;;;12.43;11.20;;;4.60;99.90;;;;;;6087035;23;20611;-72
2023/04/06 07:19:03;;;;;;;12.70;11.40;;;4.80;99.90;;;;;;6086686;23;20541;-72
2023/04/06 07:21:30;;;;;;;12.88;11.52;;;5.00;99.90;;;;;;6084723;23;20216;-72
2023/04/06 07:23:59;;;;;;;15.15;11.98;;;5.30;99.90;;;;;;6080295;23;20656;-71
2023/04/06 07:26:26;;;;;;;12.77;11.57;;;5.50;99.90;;;;;;6085134;23;20189;-76
2023/04/06 07:28:53;;;;;;;11.85;10.75;;;5.70;99.90;;;;;;6083988;23;20701;-71
2023/04/06 07:31:21;;;;;;;12.60;11.32;;;5.90;99.90;;;;;;6087602;23;20209;-71
2023/04/06 07:33:49;;;;;;;11.63;10.57;;;6.00;99.90;;;;;;6078186;23;20186;-71
2023/04/06 07:36:16;;;;;;;12.80;11.50;;;6.20;99.90;;;;;;6081946;23;20230;-72
2023/04/06 07:38:45;;;;;;;12.00;10.90;;;6.30;99.90;;;;;;6088636;23;20195;-72
2023/04/06 07:41:14;;;;;;;12.48;11.27;;;6.20;99.90;;;;;;6084675;23;20220;-71
2023/04/06 07:43:41;;;;;;;11.60;10.50;;;6.30;99.90;;;;;;6088528;23;20230;-70
2023/04/06 07:46:08;;;;;;;12.98;11.60;;;6.50;99.90;;;;;;6086678;23;20181;-75
2023/04/06 07:48:37;;;;;;;12.35;11.10;;;6.60;99.90;;;;;;6085765;23;20185;-73
2023/04/06 07:51:06;;;;;;;12.35;11.25;;;6.80;99.90;;;;;;6088206;23;20747;-72
2023/04/06 07:53:33;;;;;;;12.65;11.35;;;7.00;99.90;;;;;;6077485;23;20637;-72
2023/04/06 07:56:00;;;;;;;12.07;11.02;;;7.20;99.90;;;;;;6087450;23;20242;-71
2023/04/06 07:58:29;;;;;;;13.30;11.52;;;7.40;99.90;;;;;;6075498;23;20709;-72
2023/04/06 08:00:57;;;;;;;13.18;11.90;;;7.60;99.90;;;;;;6073651;23;20812;-70
2023/04/06 08:03:26;;;;;;;13.63;12.32;;;7.90;99.90;;;;;;6067356;23;20214;-70
2023/04/06 08:05:53;;;;;;;12.80;11.57;;;8.10;99.90;;;;;;6067434;23;20222;-71
2023/04/06 08:08:22;;;;;;;14.07;12.30;;;8.30;99.90;;;;;;6064055;23;20666;-72
2023/04/06 08:10:49;;;;;;;12.85;11.65;;;8.50;99.90;;;;;;6072606;23;20234;-70
2023/04/06 08:13:16;;;;;;;12.02;10.82;;;8.60;99.90;;;;;;6067810;23;20186;-71
2023/04/06 08:15:45;;;;;;;12.20;10.98;;;8.80;99.90;;;;;;6064425;23;20262;-71
2023/04/06 08:18:12;;;;;;;11.93;10.93;;;9.40;99.90;;;;;;6067777;23;20258;-71
2023/04/06 08:20:40;;;;;;;11.65;10.30;;;9.30;99.90;;;;;;6066880;23;20230;-70
2023/04/06 08:23:09;;;;;;;11.95;10.85;;;9.50;99.90;;;;;;6064041;23;20651;-72
2023/04/06 08:25:36;;;;;;;12.50;11.30;;;9.90;99.90;;;;;;6064314;23;20905;-70
2023/04/06 08:28:04;;;;;;;13.10;11.32;;;10.20;99.80;;;;;;6079562;23;20195;-75
2023/04/06 08:30:32;;;;;;;12.57;11.48;;;10.50;98.80;;;;;;6078064;23;20617;-74
2023/04/06 08:33:00;;;;;;;11.03;10.13;;;10.80;98.10;;;;;;6078285;23;20537;-74
2023/04/06 08:35:28;;;;;;;11.30;10.20;;;11.30;96.50;;;;;;6085915;23;20434;-75
2023/04/06 08:37:55;;;;;;;11.70;10.80;;;11.70;94.80;;;;;;6082625;23;20439;-74
2023/04/06 08:40:22;;;;;;;12.00;10.83;;;11.90;93.60;;;;;;6088194;23;20477;-74
2023/04/06 08:42:53;;;;;;;11.20;10.20;;;12.00;93.40;;;;;;6083263;23;20436;-74
2023/04/06 08:45:21;;;;;;;11.27;10.20;;;12.30;92.80;;;;;;6088135;23;20519;-74
2023/04/06 08:47:49;;;;;;;9.73;8.93;;;12.70;90.90;;;;;;6089586;23;20435;-74
2023/04/06 08:50:18;;;;;;;10.50;9.57;;;13.00;87.10;;;;;;6087556;23;20461;-74
2023/04/06 08:52:47;;;;;;;11.40;10.30;;;13.40;88.20;;;;;;6087177;23;20425;-71
2023/04/06 08:55:14;;;;;;;10.67;9.83;;;13.50;85.40;;;;;;6089206;23;20437;-71
2023/04/06 08:57:43;;;;;;;10.50;9.60;;;13.30;84.60;;;;;;6089000;23;20488;-71
2023/04/06 09:00:12;;;;;;;11.50;10.40;;;13.30;84.70;;;;;;6089406;23;20458;-76
2023/04/06 09:02:41;;;;;;;10.03;9.13;;;13.50;85.30;;;;;;6090259;23;20443;-72
2023/04/06 09:05:09;;;;;;;10.50;9.40;;;13.70;84.00;;;;;;6090181;23;20438;-72
2023/04/06 09:07:38;;;;;;;9.33;8.63;;;13.90;81.20;;;;;;6089198;23;20434;-72
2023/04/06 09:10:06;;;;;;;8.47;7.77;;;14.10;77.10;;;;;;6078791;23;20863;-73
2023/04/06 09:12:36;;;;;;;10.20;9.37;;;14.50;76.70;;;;;;6078291;23;20445;-73
2023/04/06 09:15:04;;;;;;;10.80;9.90;;;15.00;75.50;;;;;;6088424;23;20633;-72
2023/04/06 09:17:33;;;;;;;11.03;10.00;;;15.00;73.90;;;;;;6085647;23;20484;-71
2023/04/06 09:20:01;;;;;;;10.07;9.27;;;14.80;73.90;;;;;;6088171;23;21011;-92
2023/04/06 09:22:38;;;;;;;10.60;9.50;;;15.00;72.50;;;;;;6088260;23;20473;-72
2023/04/06 09:25:06;;;;;;;9.63;8.83;;;15.00;69.50;;;;;;6088236;23;20462;-76
2023/04/06 09:27:35;;;;;;;9.37;8.57;;;15.20;69.50;;;;;;6083865;23;20852;-78
2023/04/06 09:30:07;;;;;;;9.37;8.57;;;15.40;64.70;;;;;;6076433;23;20841;-75
2023/04/06 09:32:46;;;;;;;10.70;9.70;;;15.60;65.40;;;;;;6080768;23;20434;-75
2023/04/06 09:35:14;;;;;;;10.27;9.37;;;15.90;63.30;;;;;;6088552;23;20431;-75
2023/04/06 09:37:43;;;;;;;9.17;8.43;;;16.20;61.90;;;;;;6083996;23;20503;-74
2023/04/06 09:40:11;;;;;;;10.27;9.30;;;16.10;60.10;;;;;;6086613;23;20864;-73
2023/04/06 09:42:38;;;;;;;8.90;8.20;;;15.90;59.80;;;;;;6085705;23;20945;-73
2023/04/06 09:45:06;;;;;;;8.70;7.90;;;15.70;57.50;;;;;;6085610;23;20435;-73
2023/04/06 09:47:36;;;;;;;9.27;8.50;;;15.90;55.70;;;;;;6088188;23;20435;-74
2023/04/06 09:50:05;;;;;;;10.03;9.07;;;16.30;55.90;;;;;;6090499;23;20430;-72
2023/04/06 09:52:38;;;;;;;9.70;8.90;;;16.80;56.60;;;;;;6085507;23;20443;-72
2023/04/06 09:55:08;;;;;;;9.97;9.17;;;17.30;55.80;;;;;;6086969;23;20505;-71
2023/04/06 09:57:42;;;;;;;10.43;9.63;;;17.60;55.50;;;;;;6088715;23;21069;-70
2023/04/06 10:00:13;;;;;;;10.30;9.40;;;17.20;53.70;;;;;;6086414;23;20446;-70
2023/04/06 10:02:46;;;;;;;10.03;9.10;;;16.80;53.50;;;;;;6085946;23;20442;-70
2023/04/06 10:05:20;;;;;;;8.90;8.13;;;16.50;54.10;;;;;;6089854;23;20462;-69
2023/04/06 10:07:51;;;;;;;9.13;8.43;;;16.60;52.80;;;;;;6090889;23;20418;-69
2023/04/06 10:10:19;;;;;;;7.10;6.43;;;16.80;52.50;;;;;;6075753;23;20533;-77
2023/04/06 10:12:48;;;;;;;10.17;9.27;;;17.30;63.90;;;;;;6066308;23;20518;-76
2023/04/06 10:15:16;;;;;;;9.13;8.37;;;17.90;53.30;;;;;;6069322;23;20775;-76
2023/04/06 10:17:43;;;;;;;10.40;9.50;;;18.00;51.50;;;;;;6075780;23;20436;-70
2023/04/06 10:20:15;;;;;;;9.73;9.03;;;18.10;52.00;;;;;;6071377;23;20456;-69
2023/04/06 10:22:52;;;;;;;9.87;9.07;;;18.00;51.00;;;;;;6078383;23;20453;-71
2023/04/06 10:25:29;;;;;;;9.47;8.70;;;17.40;51.40;;;;;;6088689;23;20786;-71
2023/04/06 10:28:06;;;;;;;9.43;8.77;;;17.60;47.90;;;;;;6089832;23;20419;-70
2023/04/06 10:30:34;;;;;;;9.90;9.10;;;17.10;48.70;;;;;;6088610;23;20513;-71
2023/04/06 10:33:13;;;;;;;10.33;9.40;;;17.20;48.30;;;;;;6089099;23;20454;-70
2023/04/06 10:35:40;;;;;;;11.67;10.57;;;17.20;48.40;;;;;;6090669;23;20785;-71
2023/04/06 10:38:08;;;;;;;9.87;9.07;;;17.60;49.10;;;;;;6087844;23;20984;-71
2023/04/06 10:40:39;;;;;;;9.60;8.70;;;17.90;48.40;;;;;;6084185;23;20472;-71
2023/04/06 10:43:10;;;;;;;10.13;9.23;;;18.30;48.20;;;;;;6087561;23;20484;-71
2023/04/06 10:45:38;;;;;;;10.50;9.70;;;19.00;47.70;;;;;;6090721;23;20437;-71
2023/04/06 10:48:15;;;;;;;11.07;10.17;;;19.50;46.90;;;;;;6089061;23;20434;-71
2023/04/06 10:50:44;;;;;;;11.03;10.13;;;19.10;45.90;;;;;;6087944;23;20867;-71
2023/04/06 10:53:11;;;;;;;10.80;9.90;;;19.00;45.80;;;;;;6089931;23;20775;-71
2023/04/06 10:55:41;;;;;;;11.00;10.10;;;19.10;46.00;;;;;;6086512;23;20449;-71
2023/04/06 10:58:09;;;;;;;11.20;10.40;;;19.00;45.80;;;;;;6073015;23;20436;-72
2023/04/06 11:00:36;;;;;;;11.10;10.30;;;18.70;46.00;;;;;;6076403;23;21015;-71
2023/04/06 11:03:03;;;;;;;11.70;10.80;;;18.80;46.90;;;;;;6086460;23;20441;-72
2023/04/06 11:05:31;;;;;;;12.57;11.57;;;19.30;45.50;;;;;;6080983;23;20930;-71
2023/04/06 11:07:58;;;;;;;11.30;10.40;;;19.50;46.00;;;;;;6085768;23;20931;-71
2023/04/06 11:10:25;;;;;;;11.70;10.70;;;19.70;45.80;;;;;;6088876;23;20508;-71
2023/04/06 11:12:58;;;;;;;12.40;11.40;;;20.00;44.70;;;;;;6088223;23;20533;-71
2023/04/06 11:15:25;;;;;;;11.27;10.37;;;20.00;44.40;;;;;;6069864;23;20439;-71
2023/04/06 11:17:52;;;;;;;11.10;10.30;;;20.10;45.40;;;;;;6066325;23;20434;-71
2023/04/06 11:20:19;;;;;;;11.83;10.93;;;20.50;45.90;;;;;;6065174;23;20524;-71
2023/04/06 11:22:51;;;;;;;11.03;10.23;;;20.30;44.90;;;;;;6066680;23;20474;-70
2023/04/06 11:25:19;;;;;;;10.40;9.50;;;20.30;44.40;;;;;;6075748;23;20438;-70
2023/04/06 11:27:47;;;;;;;11.97;10.97;;;20.00;45.60;;;;;;6076020;23;20430;-70
2023/04/06 11:30:16;;;;;;;10.67;9.87;;;20.10;45.00;;;;;;6073917;23;20512;-71
2023/04/06 11:32:46;;;;;;;10.47;9.73;;;20.40;44.90;;;;;;6086802;23;20446;-71
2023/04/06 11:35:21;;;;;;;11.20;10.20;;;20.60;45.00;;;;;;6079200;23;20798;-71
2023/04/06 11:37:49;;;;;;;11.37;10.37;;;20.90;44.10;;;;;;6078173;23;20445;-70
2023/04/06 11:40:21;;;;;;;11.10;10.20;;;21.20;43.30;;;;;;6075562;23;20533;-72
2023/04/06 11:42:53;;;;;;;10.40;9.50;;;21.00;43.00;;;;;;6084038;23;20962;-72
2023/04/06 11:45:22;;;;;;;11.63;10.73;;;20.80;42.20;;;;;;6078524;23;20439;-77
2023/04/06 11:47:58;;;;;;;11.53;10.53;;;20.10;41.80;;;;;;6084227;23;20430;-81
2023/04/06 11:50:26;;;;;;;10.67;9.87;;;19.60;42.30;;;;;;6072543;23;20446;-83
2023/04/06 11:53:00;;;;;;;10.53;9.50;;;19.60;42.30;;;;;;6080505;23;20930;-74
2023/04/06 11:55:28;;;;;;;10.43;9.60;;;19.90;42.50;;;;;;6084258;23;20442;-73
2023/04/06 11:57:55;;;;;;;10.40;9.40;;;20.40;41.50;;;;;;6089419;23;20545;-76
2023/04/06 12:00:24;;;;;;;9.93;9.23;;;20.70;42.00;;;;;;6088007;23;20541;-76
2023/04/06 12:02:51;;;;;;;10.43;9.73;;;20.90;41.70;;;;;;6093417;23;20462;-75
2023/04/06 12:05:18;;;;;;;10.87;9.97;;;21.20;41.20;;;;;;6093455;23;20522;-75
2023/04/06 12:07:45;;;;;;;9.77;9.07;;;21.10;40.70;;;;;;6086360;23;20489;-75
2023/04/06 12:10:12;;;;;;;10.97;10.10;;;21.20;41.50;;;;;;6092182;23;20519;-75
2023/04/06 12:12:40;;;;;;;11.30;10.30;;;21.10;41.50;;;;;;6091653;23;20533;-76
2023/04/06 12:15:09;;;;;;;10.50;9.80;;;20.80;41.60;;;;;;6093009;23;20426;-75
2023/04/06 12:17:37;;;;;;;11.47;10.47;;;20.50;41.40;;;;;;6071554;23;20930;-75
2023/04/06 12:20:05;;;;;;;10.30;9.43;;;19.60;42.00;;;;;;6094115;23;20516;-75
2023/04/06 12:22:32;;;;;;;10.27;9.37;;;19.70;43.00;;;;;;6093042;23;20873;-75
2023/04/06 12:24:59;;;;;;;9.90;9.10;;;20.00;41.90;;;;;;6093197;23;20461;-75
2023/04/06 12:27:26;;;;;;;9.23;8.57;;;19.90;40.80;;;;;;6089407;23;20997;-75
2023/04/06 12:29:55;;;;;;;10.30;9.50;;;19.60;41.50;;;;;;6064715;23;20473;-75
2023/04/06 12:32:22;;;;;;;10.67;9.67;;;19.80;41.20;;;;;;6064710;23;20484;-75
2023/04/06 12:34:52;;;;;;;9.50;8.80;;;20.00;42.10;;;;;;6064992;23;20430;-75
2023/04/06 12:37:20;;;;;;;9.60;8.80;;;20.00;41.90;;;;;;6091099;23;20829;-75
2023/04/06 12:39:47;;;;;;;9.63;8.83;;;18.40;43.10;;;;;;6093748;23;20474;-74
2023/04/06 12:42:14;;;;;;;8.77;8.07;;;17.20;43.20;;;;;;6093849;23;20469;-74